sensor_id;sensor_type;location;lat;lon;timestamp;pressure;altitude;pressure_sealevel;temperature;humidity
60479;BME280;46321;48.398;11.754;2022-08-18T00:01:21;96070.38;;;19.85;74.51
60479;BME280;46321;48.398;11.754;2022-08-18T00:03:48;96073.44;;;19.76;75.51
60479;BME280;46321;48.398;11.754;2022-08-18T00:06:15;96092.00;;;19.78;74.97
60479;BME280;46321;48.398;11.754;2022-08-18T00:08:41;96094.34;;;19.74;75.00
60479;BME280;46321;48.398;11.754;2022-08-18T00:11:06;96111.03;;;19.76;75.39
60479;BME280;46321;48.398;11.754;2022-08-18T00:13:31;96098.00;;;19.85;74.98
60479;BME280;46321;48.398;11.754;2022-08-18T00:15:57;96104.47;;;19.84;74.68
60479;BME280;46321;48.398;11.754;2022-08-18T00:18:22;96099.31;;;19.83;75.17
60479;BME280;46321;48.398;11.754;2022-08-18T00:20:47;96109.91;;;19.72;75.55
60479;BME280;46321;48.398;11.754;2022-08-18T00:23:13;96116.09;;;19.73;75.46
60479;BME280;46321;48.398;11.754;2022-08-18T00:25:39;96123.56;;;19.71;75.83
60479;BME280;46321;48.398;11.754;2022-08-18T00:28:04;96132.66;;;19.70;75.79
60479;BME280;46321;48.398;11.754;2022-08-18T00:30:30;96136.16;;;19.70;75.85
60479;BME280;46321;48.398;11.754;2022-08-18T00:32:57;96154.81;;;19.77;76.52
60479;BME280;46321;48.398;11.754;2022-08-18T00:35:35;96159.34;;;19.76;76.17
60479;BME280;46321;48.398;11.754;2022-08-18T00:38:04;96169.38;;;19.81;76.15
60479;BME280;46321;48.398;11.754;2022-08-18T00:40:33;96160.19;;;19.77;76.63
60479;BME280;46321;48.398;11.754;2022-08-18T00:43:02;96154.25;;;19.75;76.26
60479;BME280;46321;48.398;11.754;2022-08-18T00:45:31;96142.34;;;19.71;76.86
60479;BME280;46321;48.398;11.754;2022-08-18T00:47:58;96146.03;;;19.64;77.97
60479;BME280;46321;48.398;11.754;2022-08-18T00:50:51;96129.66;;;19.66;77.10
60479;BME280;46321;48.398;11.754;2022-08-18T00:53:32;96124.78;;;19.63;77.58
60479;BME280;46321;48.398;11.754;2022-08-18T00:56:04;96120.69;;;19.60;77.31
60479;BME280;46321;48.398;11.754;2022-08-18T00:58:33;96129.09;;;19.64;77.10
60479;BME280;46321;48.398;11.754;2022-08-18T01:01:02;96137.41;;;19.62;77.37
60479;BME280;46321;48.398;11.754;2022-08-18T01:03:29;96146.50;;;19.61;77.74
60479;BME280;46321;48.398;11.754;2022-08-18T01:06:03;96151.88;;;19.61;77.45
60479;BME280;46321;48.398;11.754;2022-08-18T01:08:30;96143.72;;;19.56;77.72
60479;BME280;46321;48.398;11.754;2022-08-18T01:10:58;96146.66;;;19.54;77.66
60479;BME280;46321;48.398;11.754;2022-08-18T01:13:28;96150.41;;;19.53;77.85
60479;BME280;46321;48.398;11.754;2022-08-18T01:15:55;96156.38;;;19.43;78.30
60479;BME280;46321;48.398;11.754;2022-08-18T01:18:20;96155.00;;;19.41;78.46
60479;BME280;46321;48.398;11.754;2022-08-18T01:21:18;96148.16;;;19.33;78.94
60479;BME280;46321;48.398;11.754;2022-08-18T01:24:07;96150.50;;;19.29;78.61
60479;BME280;46321;48.398;11.754;2022-08-18T01:26:36;96137.66;;;19.31;78.87
60479;BME280;46321;48.398;11.754;2022-08-18T01:29:05;96136.75;;;19.26;79.28
60479;BME280;46321;48.398;11.754;2022-08-18T01:31:40;96132.28;;;19.31;79.08
60479;BME280;46321;48.398;11.754;2022-08-18T01:34:08;96141.88;;;19.27;79.29
60479;BME280;46321;48.398;11.754;2022-08-18T01:36:38;96150.88;;;19.21;79.55
60479;BME280;46321;48.398;11.754;2022-08-18T01:39:07;96152.03;;;19.13;80.18
60479;BME280;46321;48.398;11.754;2022-08-18T01:41:32;96163.25;;;19.10;79.88
60479;BME280;46321;48.398;11.754;2022-08-18T01:43:59;96159.19;;;19.19;79.78
60479;BME280;46321;48.398;11.754;2022-08-18T01:46:27;96159.88;;;19.03;80.12
60479;BME280;46321;48.398;11.754;2022-08-18T01:48:52;96155.09;;;19.05;79.99
60479;BME280;46321;48.398;11.754;2022-08-18T01:51:18;96151.00;;;19.02;80.49
60479;BME280;46321;48.398;11.754;2022-08-18T01:53:44;96146.84;;;18.94;80.61
60479;BME280;46321;48.398;11.754;2022-08-18T01:56:10;96164.34;;;18.97;80.97
60479;BME280;46321;48.398;11.754;2022-08-18T01:58:36;96169.94;;;18.95;80.88
60479;BME280;46321;48.398;11.754;2022-08-18T02:01:02;96169.47;;;18.98;80.65
60479;BME280;46321;48.398;11.754;2022-08-18T02:03:51;96166.00;;;18.86;81.52
60479;BME280;46321;48.398;11.754;2022-08-18T02:06:16;96161.34;;;18.81;81.46
60479;BME280;46321;48.398;11.754;2022-08-18T02:08:44;96167.28;;;18.83;81.54
60479;BME280;46321;48.398;11.754;2022-08-18T02:11:09;96167.16;;;18.78;81.46
60479;BME280;46321;48.398;11.754;2022-08-18T02:13:34;96179.66;;;18.72;82.11
60479;BME280;46321;48.398;11.754;2022-08-18T02:16:00;96187.59;;;18.67;82.40
60479;BME280;46321;48.398;11.754;2022-08-18T02:18:28;96172.22;;;18.62;83.02
60479;BME280;46321;48.398;11.754;2022-08-18T02:20:55;96169.06;;;18.53;83.01
60479;BME280;46321;48.398;11.754;2022-08-18T02:23:21;96159.75;;;18.56;83.51
60479;BME280;46321;48.398;11.754;2022-08-18T02:25:47;96155.66;;;18.53;83.55
60479;BME280;46321;48.398;11.754;2022-08-18T02:28:13;96155.53;;;18.48;84.35
60479;BME280;46321;48.398;11.754;2022-08-18T02:30:38;96143.78;;;18.49;83.88
60479;BME280;46321;48.398;11.754;2022-08-18T02:33:06;96141.13;;;18.49;83.65
60479;BME280;46321;48.398;11.754;2022-08-18T02:35:32;96156.81;;;18.58;83.36
60479;BME280;46321;48.398;11.754;2022-08-18T02:38:02;96163.47;;;18.55;83.47
60479;BME280;46321;48.398;11.754;2022-08-18T02:40:28;96164.28;;;18.56;83.45
60479;BME280;46321;48.398;11.754;2022-08-18T02:42:56;96157.66;;;18.58;83.64
60479;BME280;46321;48.398;11.754;2022-08-18T02:45:21;96139.59;;;18.65;83.19
60479;BME280;46321;48.398;11.754;2022-08-18T02:47:53;96163.00;;;18.70;83.19
60479;BME280;46321;48.398;11.754;2022-08-18T02:50:20;96151.13;;;18.66;83.68
60479;BME280;46321;48.398;11.754;2022-08-18T02:52:46;96159.28;;;18.59;83.67
60479;BME280;46321;48.398;11.754;2022-08-18T02:55:12;96164.41;;;18.61;84.00
60479;BME280;46321;48.398;11.754;2022-08-18T02:57:45;96162.19;;;18.58;84.04
60479;BME280;46321;48.398;11.754;2022-08-18T03:00:12;96158.47;;;18.59;84.54
60479;BME280;46321;48.398;11.754;2022-08-18T03:02:39;96152.03;;;18.60;84.26
60479;BME280;46321;48.398;11.754;2022-08-18T03:05:05;96157.97;;;18.62;84.54
60479;BME280;46321;48.398;11.754;2022-08-18T03:07:31;96149.38;;;18.60;84.44
60479;BME280;46321;48.398;11.754;2022-08-18T03:09:56;96148.22;;;18.56;84.79
60479;BME280;46321;48.398;11.754;2022-08-18T03:12:21;96145.28;;;18.57;84.50
60479;BME280;46321;48.398;11.754;2022-08-18T03:14:47;96159.50;;;18.58;84.50
60479;BME280;46321;48.398;11.754;2022-08-18T03:17:12;96166.50;;;18.59;84.39
60479;BME280;46321;48.398;11.754;2022-08-18T03:19:39;96160.22;;;18.53;84.87
60479;BME280;46321;48.398;11.754;2022-08-18T03:22:07;96159.50;;;18.58;84.68
60479;BME280;46321;48.398;11.754;2022-08-18T03:24:33;96159.28;;;18.59;84.76
60479;BME280;46321;48.398;11.754;2022-08-18T03:26:59;96155.53;;;18.60;84.47
60479;BME280;46321;48.398;11.754;2022-08-18T03:29:28;96161.03;;;18.53;84.80
60479;BME280;46321;48.398;11.754;2022-08-18T03:31:53;96162.88;;;18.53;84.60
60479;BME280;46321;48.398;11.754;2022-08-18T03:34:19;96164.19;;;18.50;84.90
60479;BME280;46321;48.398;11.754;2022-08-18T03:36:45;96164.41;;;18.49;84.57
60479;BME280;46321;48.398;11.754;2022-08-18T03:39:12;96153.94;;;18.47;84.69
60479;BME280;46321;48.398;11.754;2022-08-18T03:41:39;96146.59;;;18.42;84.94
60479;BME280;46321;48.398;11.754;2022-08-18T03:44:06;96143.09;;;18.42;84.58
60479;BME280;46321;48.398;11.754;2022-08-18T03:46:31;96146.72;;;18.36;84.88
60479;BME280;46321;48.398;11.754;2022-08-18T03:48:57;96142.63;;;18.33;85.05
60479;BME280;46321;48.398;11.754;2022-08-18T03:51:26;96147.78;;;18.35;85.18
60479;BME280;46321;48.398;11.754;2022-08-18T03:53:54;96154.75;;;18.36;84.66
60479;BME280;46321;48.398;11.754;2022-08-18T03:56:23;96156.03;;;18.33;84.85
60479;BME280;46321;48.398;11.754;2022-08-18T03:58:58;96152.53;;;18.33;84.80
60479;BME280;46321;48.398;11.754;2022-08-18T04:01:27;96144.50;;;18.33;84.59
60479;BME280;46321;48.398;11.754;2022-08-18T04:03:55;96150.22;;;18.24;84.94
60479;BME280;46321;48.398;11.754;2022-08-18T04:06:27;96142.66;;;18.21;84.90
60479;BME280;46321;48.398;11.754;2022-08-18T04:08:53;96151.28;;;18.23;84.76
60479;BME280;46321;48.398;11.754;2022-08-18T04:11:19;96146.00;;;18.16;84.77
60479;BME280;46321;48.398;11.754;2022-08-18T04:13:44;96124.44;;;18.11;84.97
60479;BME280;46321;48.398;11.754;2022-08-18T04:16:11;96130.03;;;18.10;85.13
60479;BME280;46321;48.398;11.754;2022-08-18T04:18:37;96124.09;;;18.07;85.33
60479;BME280;46321;48.398;11.754;2022-08-18T04:21:04;96118.97;;;18.06;85.07
60479;BME280;46321;48.398;11.754;2022-08-18T04:23:36;96125.16;;;18.06;85.04
60479;BME280;46321;48.398;11.754;2022-08-18T04:26:03;96142.63;;;18.09;84.75
60479;BME280;46321;48.398;11.754;2022-08-18T04:28:29;96139.22;;;18.02;85.53
60479;BME280;46321;48.398;11.754;2022-08-18T04:30:55;96136.34;;;18.03;85.34
60479;BME280;46321;48.398;11.754;2022-08-18T04:33:24;96133.78;;;17.96;85.34
60479;BME280;46321;48.398;11.754;2022-08-18T04:35:50;96136.78;;;18.00;85.44
60479;BME280;46321;48.398;11.754;2022-08-18T04:38:15;96141.31;;;18.00;85.24
60479;BME280;46321;48.398;11.754;2022-08-18T04:40:41;96144.47;;;17.96;85.59
60479;BME280;46321;48.398;11.754;2022-08-18T04:43:07;96135.63;;;17.96;85.58
60479;BME280;46321;48.398;11.754;2022-08-18T04:45:41;96126.44;;;17.92;85.89
60479;BME280;46321;48.398;11.754;2022-08-18T04:48:09;96134.81;;;17.95;86.00
60479;BME280;46321;48.398;11.754;2022-08-18T04:50:35;96136.22;;;17.98;85.67
60479;BME280;46321;48.398;11.754;2022-08-18T04:53:01;96134.34;;;17.99;85.75
60479;BME280;46321;48.398;11.754;2022-08-18T04:55:49;96127.69;;;18.01;85.43
60479;BME280;46321;48.398;11.754;2022-08-18T04:58:17;96129.22;;;18.09;85.35
60479;BME280;46321;48.398;11.754;2022-08-18T05:00:44;96125.59;;;18.15;84.88
60479;BME280;46321;48.398;11.754;2022-08-18T05:03:10;96138.47;;;18.25;84.53
60479;BME280;46321;48.398;11.754;2022-08-18T05:05:35;96143.69;;;18.32;84.28
60479;BME280;46321;48.398;11.754;2022-08-18T05:08:00;96145.69;;;18.37;83.96
60479;BME280;46321;48.398;11.754;2022-08-18T05:10:26;96145.56;;;18.44;83.27
60479;BME280;46321;48.398;11.754;2022-08-18T05:12:51;96146.22;;;18.51;82.96
60479;BME280;46321;48.398;11.754;2022-08-18T05:15:16;96145.66;;;18.49;82.96
60479;BME280;46321;48.398;11.754;2022-08-18T05:17:43;96154.97;;;18.58;82.47
60479;BME280;46321;48.398;11.754;2022-08-18T05:20:09;96156.94;;;18.63;82.24
60479;BME280;46321;48.398;11.754;2022-08-18T05:22:39;96165.00;;;18.63;82.38
60479;BME280;46321;48.398;11.754;2022-08-18T05:25:07;96172.09;;;18.69;82.02
60479;BME280;46321;48.398;11.754;2022-08-18T05:27:35;96163.09;;;18.75;81.99
60479;BME280;46321;48.398;11.754;2022-08-18T05:30:03;96166.59;;;18.88;81.48
60479;BME280;46321;48.398;11.754;2022-08-18T05:32:33;96169.34;;;18.93;81.10
60479;BME280;46321;48.398;11.754;2022-08-18T05:35:03;96163.84;;;19.00;80.62
60479;BME280;46321;48.398;11.754;2022-08-18T05:37:36;96159.03;;;19.14;80.00
60479;BME280;46321;48.398;11.754;2022-08-18T05:40:06;96156.50;;;19.19;79.90
60479;BME280;46321;48.398;11.754;2022-08-18T05:42:37;96166.38;;;19.31;79.46
60479;BME280;46321;48.398;11.754;2022-08-18T05:45:09;96157.34;;;19.37;78.62
60479;BME280;46321;48.398;11.754;2022-08-18T05:47:35;96158.34;;;19.48;78.82
60479;BME280;46321;48.398;11.754;2022-08-18T05:50:07;96165.28;;;19.61;78.19
60479;BME280;46321;48.398;11.754;2022-08-18T05:52:42;96174.06;;;19.74;77.78
60479;BME280;46321;48.398;11.754;2022-08-18T05:55:15;96184.59;;;19.93;77.71
60479;BME280;46321;48.398;11.754;2022-08-18T05:58:31;96180.31;;;20.09;77.54
60479;BME280;46321;48.398;11.754;2022-08-18T06:01:04;96180.00;;;20.22;76.86
60479;BME280;46321;48.398;11.754;2022-08-18T06:03:42;96174.53;;;20.34;75.95
60479;BME280;46321;48.398;11.754;2022-08-18T06:06:14;96179.56;;;20.48;75.16
60479;BME280;46321;48.398;11.754;2022-08-18T06:08:51;96183.94;;;20.54;74.40
60479;BME280;46321;48.398;11.754;2022-08-18T06:11:19;96186.72;;;20.59;74.67
60479;BME280;46321;48.398;11.754;2022-08-18T06:13:45;96201.34;;;20.69;74.50
60479;BME280;46321;48.398;11.754;2022-08-18T06:19:14;96213.25;;;20.73;73.76
60479;BME280;46321;48.398;11.754;2022-08-18T06:22:05;96213.50;;;20.71;73.63
60479;BME280;46321;48.398;11.754;2022-08-18T06:25:02;96217.63;;;20.79;73.12
60479;BME280;46321;48.398;11.754;2022-08-18T06:27:37;96220.13;;;20.86;73.32
60479;BME280;46321;48.398;11.754;2022-08-18T06:30:19;96213.53;;;20.94;72.32
60479;BME280;46321;48.398;11.754;2022-08-18T06:41:08;96206.72;;;21.09;72.37
60479;BME280;46321;48.398;11.754;2022-08-18T06:43:36;96215.13;;;21.12;72.08
60479;BME280;46321;48.398;11.754;2022-08-18T06:46:17;96213.78;;;21.15;71.92
60479;BME280;46321;48.398;11.754;2022-08-18T06:48:50;96203.22;;;21.08;72.66
60479;BME280;46321;48.398;11.754;2022-08-18T06:51:20;96217.13;;;21.00;71.88
60479;BME280;46321;48.398;11.754;2022-08-18T06:53:53;96213.94;;;21.03;71.95
60479;BME280;46321;48.398;11.754;2022-08-18T07:01:38;96208.94;;;21.12;72.48
60479;BME280;46321;48.398;11.754;2022-08-18T07:04:04;96199.78;;;21.13;72.40
60479;BME280;46321;48.398;11.754;2022-08-18T07:06:30;96176.91;;;21.10;72.66
60479;BME280;46321;48.398;11.754;2022-08-18T07:09:22;96172.69;;;21.20;73.07
60479;BME280;46321;48.398;11.754;2022-08-18T07:12:04;96179.38;;;21.17;72.58
60479;BME280;46321;48.398;11.754;2022-08-18T07:14:33;96181.84;;;21.19;71.88
60479;BME280;46321;48.398;11.754;2022-08-18T07:17:08;96172.75;;;21.25;72.20
60479;BME280;46321;48.398;11.754;2022-08-18T07:19:34;96170.44;;;21.34;71.37
60479;BME280;46321;48.398;11.754;2022-08-18T07:22:19;96157.63;;;21.46;71.23
60479;BME280;46321;48.398;11.754;2022-08-18T07:24:47;96142.63;;;21.56;70.53
60479;BME280;46321;48.398;11.754;2022-08-18T07:27:16;96150.78;;;21.61;70.61
60479;BME280;46321;48.398;11.754;2022-08-18T07:32:29;96166.53;;;21.80;68.68
60479;BME280;46321;48.398;11.754;2022-08-18T07:34:57;96155.78;;;21.80;69.04
60479;BME280;46321;48.398;11.754;2022-08-18T07:37:55;96133.03;;;21.93;69.23
60479;BME280;46321;48.398;11.754;2022-08-18T07:40:31;96132.66;;;22.17;68.71
60479;BME280;46321;48.398;11.754;2022-08-18T07:43:01;96144.34;;;22.33;68.10
60479;BME280;46321;48.398;11.754;2022-08-18T07:45:35;96158.72;;;22.49;67.39
60479;BME280;46321;48.398;11.754;2022-08-18T07:48:09;96169.88;;;22.63;66.37
60479;BME280;46321;48.398;11.754;2022-08-18T07:50:59;96167.00;;;22.75;65.14
60479;BME280;46321;48.398;11.754;2022-08-18T07:53:38;96153.06;;;22.99;65.72
60479;BME280;46321;48.398;11.754;2022-08-18T08:01:30;96157.88;;;24.04;61.75
60479;BME280;46321;48.398;11.754;2022-08-18T08:04:14;96157.88;;;24.19;59.90
60479;BME280;46321;48.398;11.754;2022-08-18T08:09:21;96140.66;;;24.92;57.86
60479;BME280;46321;48.398;11.754;2022-08-18T08:11:57;96149.84;;;25.01;56.93
60479;BME280;46321;48.398;11.754;2022-08-18T08:14:35;96152.13;;;25.34;57.03
60479;BME280;46321;48.398;11.754;2022-08-18T08:17:23;96155.56;;;25.50;54.67
60479;BME280;46321;48.398;11.754;2022-08-18T08:22:35;96138.66;;;25.64;55.16
60479;BME280;46321;48.398;11.754;2022-08-18T08:30:09;96150.56;;;25.68;53.14
60479;BME280;46321;48.398;11.754;2022-08-18T08:35:13;96156.94;;;25.88;52.26
60479;BME280;46321;48.398;11.754;2022-08-18T08:37:45;96147.31;;;26.06;52.43
60479;BME280;46321;48.398;11.754;2022-08-18T08:40:23;96142.94;;;26.46;52.49
60479;BME280;46321;48.398;11.754;2022-08-18T08:43:02;96138.41;;;26.85;51.03
60479;BME280;46321;48.398;11.754;2022-08-18T08:45:32;96135.03;;;27.18;50.11
60479;BME280;46321;48.398;11.754;2022-08-18T08:48:08;96121.63;;;27.46;49.51
60479;BME280;46321;48.398;11.754;2022-08-18T08:50:44;96118.59;;;27.86;48.00
60479;BME280;46321;48.398;11.754;2022-08-18T08:53:37;96114.22;;;27.85;46.20
60479;BME280;46321;48.398;11.754;2022-08-18T08:56:09;96112.53;;;27.89;47.32
60479;BME280;46321;48.398;11.754;2022-08-18T08:58:46;96113.28;;;28.09;47.21
60479;BME280;46321;48.398;11.754;2022-08-18T09:01:43;96101.22;;;28.30;45.99
60479;BME280;46321;48.398;11.754;2022-08-18T09:10:23;96080.69;;;28.38;45.29
60479;BME280;46321;48.398;11.754;2022-08-18T09:15:37;96093.91;;;28.73;45.21
60479;BME280;46321;48.398;11.754;2022-08-18T09:20:52;96100.50;;;30.06;44.49
60479;BME280;46321;48.398;11.754;2022-08-18T09:23:29;96092.00;;;30.80;42.08
60479;BME280;46321;48.398;11.754;2022-08-18T09:25:59;96087.09;;;31.27;40.89
60479;BME280;46321;48.398;11.754;2022-08-18T09:31:21;96087.88;;;32.07;38.68
60479;BME280;46321;48.398;11.754;2022-08-18T09:33:58;96098.94;;;32.59;37.42
60479;BME280;46321;48.398;11.754;2022-08-18T09:37:00;96103.81;;;32.44;36.00
60479;BME280;46321;48.398;11.754;2022-08-18T09:39:33;96095.44;;;33.10;36.02
60479;BME280;46321;48.398;11.754;2022-08-18T09:42:47;96094.53;;;34.17;34.06
60479;BME280;46321;48.398;11.754;2022-08-18T09:52:51;96091.97;;;35.79;30.69
60479;BME280;46321;48.398;11.754;2022-08-18T09:57:43;96083.88;;;36.15;28.69
60479;BME280;46321;48.398;11.754;2022-08-18T10:08:08;96070.41;;;37.90;27.49
60479;BME280;46321;48.398;11.754;2022-08-18T10:10:55;96079.75;;;38.05;27.42
60479;BME280;46321;48.398;11.754;2022-08-18T10:16:46;96069.56;;;37.86;26.02
60479;BME280;46321;48.398;11.754;2022-08-18T10:19:31;96068.34;;;36.71;27.43
60479;BME280;46321;48.398;11.754;2022-08-18T10:22:02;96075.34;;;37.01;26.54
60479;BME280;46321;48.398;11.754;2022-08-18T10:24:34;96073.66;;;37.16;26.56
60479;BME280;46321;48.398;11.754;2022-08-18T10:27:03;96081.22;;;37.79;26.09
60479;BME280;46321;48.398;11.754;2022-08-18T10:34:56;96082.81;;;38.98;24.55
60479;BME280;46321;48.398;11.754;2022-08-18T10:37:35;96077.38;;;38.78;24.36
60479;BME280;46321;48.398;11.754;2022-08-18T10:40:12;96076.41;;;39.52;23.04
60479;BME280;46321;48.398;11.754;2022-08-18T10:42:42;96077.16;;;38.63;23.76
60479;BME280;46321;48.398;11.754;2022-08-18T10:45:25;96074.34;;;39.45;22.89
60479;BME280;46321;48.398;11.754;2022-08-18T10:48:18;96074.84;;;40.83;22.42
60479;BME280;46321;48.398;11.754;2022-08-18T10:50:50;96074.47;;;41.71;21.51
60479;BME280;46321;48.398;11.754;2022-08-18T11:02:19;96045.75;;;41.19;21.35
60479;BME280;46321;48.398;11.754;2022-08-18T11:04:52;96041.28;;;39.59;23.52
60479;BME280;46321;48.398;11.754;2022-08-18T11:07:20;96041.84;;;39.38;23.53
60479;BME280;46321;48.398;11.754;2022-08-18T11:09:50;96036.50;;;38.91;23.16
60479;BME280;46321;48.398;11.754;2022-08-18T11:12:44;96042.78;;;37.46;25.51
60479;BME280;46321;48.398;11.754;2022-08-18T11:15:23;96033.81;;;36.94;25.14
60479;BME280;46321;48.398;11.754;2022-08-18T11:20:34;96044.88;;;35.96;26.89
60479;BME280;46321;48.398;11.754;2022-08-18T11:23:01;96048.78;;;35.67;26.93
60479;BME280;46321;48.398;11.754;2022-08-18T11:25:30;96048.41;;;35.23;27.83
60479;BME280;46321;48.398;11.754;2022-08-18T11:27:57;96035.47;;;35.11;27.93
60479;BME280;46321;48.398;11.754;2022-08-18T11:30:28;96031.44;;;34.55;29.02
60479;BME280;46321;48.398;11.754;2022-08-18T11:32:54;96036.88;;;34.04;30.09
60479;BME280;46321;48.398;11.754;2022-08-18T11:35:24;96033.66;;;33.56;29.99
60479;BME280;46321;48.398;11.754;2022-08-18T11:38:10;96023.66;;;33.39;31.29
60479;BME280;46321;48.398;11.754;2022-08-18T11:40:39;96013.66;;;33.55;31.50
60479;BME280;46321;48.398;11.754;2022-08-18T11:45:50;95989.78;;;32.49;32.18
60479;BME280;46321;48.398;11.754;2022-08-18T11:58:54;96002.69;;;29.58;36.68
60479;BME280;46321;48.398;11.754;2022-08-18T12:04:15;95968.28;;;29.71;37.29
60479;BME280;46321;48.398;11.754;2022-08-18T12:06:55;95959.88;;;29.59;37.61
60479;BME280;46321;48.398;11.754;2022-08-18T12:09:44;95948.22;;;30.08;35.99
60479;BME280;46321;48.398;11.754;2022-08-18T12:12:20;95945.47;;;30.49;35.63
60479;BME280;46321;48.398;11.754;2022-08-18T12:17:37;95922.03;;;30.66;35.95
60479;BME280;46321;48.398;11.754;2022-08-18T12:20:03;95909.00;;;30.45;36.90
60479;BME280;46321;48.398;11.754;2022-08-18T12:22:33;95910.00;;;30.49;36.64
60479;BME280;46321;48.398;11.754;2022-08-18T12:24:59;95906.13;;;30.41;36.13
60479;BME280;46321;48.398;11.754;2022-08-18T12:27:27;95898.34;;;30.25;36.54
60479;BME280;46321;48.398;11.754;2022-08-18T12:29:54;95883.06;;;30.15;36.72
60479;BME280;46321;48.398;11.754;2022-08-18T12:32:22;95894.06;;;30.33;37.52
60479;BME280;46321;48.398;11.754;2022-08-18T12:34:49;95896.34;;;30.49;38.00
60479;BME280;46321;48.398;11.754;2022-08-18T12:37:20;95913.03;;;30.56;37.72
60479;BME280;46321;48.398;11.754;2022-08-18T12:39:46;95930.53;;;30.46;36.86
60479;BME280;46321;48.398;11.754;2022-08-18T12:42:12;95939.53;;;30.56;37.02
60479;BME280;46321;48.398;11.754;2022-08-18T12:44:37;95940.16;;;30.61;37.22
60479;BME280;46321;48.398;11.754;2022-08-18T12:47:10;95936.81;;;30.56;36.44
60479;BME280;46321;48.398;11.754;2022-08-18T12:49:36;95920.72;;;30.72;36.49
60479;BME280;46321;48.398;11.754;2022-08-18T12:52:01;95916.91;;;30.73;37.20
60479;BME280;46321;48.398;11.754;2022-08-18T12:54:27;95910.28;;;30.83;36.97
60479;BME280;46321;48.398;11.754;2022-08-18T12:56:54;95904.19;;;30.68;36.19
60479;BME280;46321;48.398;11.754;2022-08-18T12:59:19;95888.16;;;30.76;37.03
60479;BME280;46321;48.398;11.754;2022-08-18T13:01:45;95905.00;;;30.60;37.10
60479;BME280;46321;48.398;11.754;2022-08-18T13:04:11;95919.59;;;30.37;37.29
60479;BME280;46321;48.398;11.754;2022-08-18T13:06:38;95925.53;;;30.39;36.57
60479;BME280;46321;48.398;11.754;2022-08-18T13:09:05;95930.28;;;29.75;37.20
60479;BME280;46321;48.398;11.754;2022-08-18T13:11:30;95930.38;;;29.29;38.13
60479;BME280;46321;48.398;11.754;2022-08-18T13:13:56;95932.50;;;29.09;38.86
60479;BME280;46321;48.398;11.754;2022-08-18T13:16:22;95920.53;;;29.19;38.89
60479;BME280;46321;48.398;11.754;2022-08-18T13:18:48;95911.91;;;29.26;38.98
60479;BME280;46321;48.398;11.754;2022-08-18T13:21:15;95914.72;;;29.12;39.18
60479;BME280;46321;48.398;11.754;2022-08-18T13:23:40;95906.28;;;28.76;40.21
60479;BME280;46321;48.398;11.754;2022-08-18T13:26:08;95905.03;;;28.60;40.08
60479;BME280;46321;48.398;11.754;2022-08-18T13:28:36;95908.72;;;28.64;40.35
60479;BME280;46321;48.398;11.754;2022-08-18T13:31:03;95892.25;;;28.32;40.44
60479;BME280;46321;48.398;11.754;2022-08-18T13:33:28;95891.63;;;27.98;41.83
60479;BME280;46321;48.398;11.754;2022-08-18T13:35:54;95886.06;;;28.17;41.87
60479;BME280;46321;48.398;11.754;2022-08-18T13:38:20;95880.72;;;28.12;41.73
60479;BME280;46321;48.398;11.754;2022-08-18T13:40:48;95868.44;;;28.00;41.96
60479;BME280;46321;48.398;11.754;2022-08-18T13:43:16;95870.66;;;27.70;41.90
60479;BME280;46321;48.398;11.754;2022-08-18T13:45:41;95875.09;;;27.66;42.23
60479;BME280;46321;48.398;11.754;2022-08-18T13:48:09;95875.50;;;27.59;41.79
60479;BME280;46321;48.398;11.754;2022-08-18T13:50:34;95873.38;;;27.42;42.77
60479;BME280;46321;48.398;11.754;2022-08-18T13:53:01;95878.69;;;27.47;42.20
60479;BME280;46321;48.398;11.754;2022-08-18T13:55:26;95879.31;;;27.44;42.55
60479;BME280;46321;48.398;11.754;2022-08-18T13:57:53;95875.88;;;27.38;42.44
60479;BME280;46321;48.398;11.754;2022-08-18T14:00:20;95871.13;;;27.30;42.99
60479;BME280;46321;48.398;11.754;2022-08-18T14:02:47;95886.88;;;27.14;43.85
60479;BME280;46321;48.398;11.754;2022-08-18T14:05:15;95885.88;;;27.09;43.20
60479;BME280;46321;48.398;11.754;2022-08-18T14:07:41;95893.28;;;27.04;42.93
60479;BME280;46321;48.398;11.754;2022-08-18T14:10:07;95889.91;;;27.12;43.75
60479;BME280;46321;48.398;11.754;2022-08-18T14:12:35;95894.44;;;26.97;43.46
60479;BME280;46321;48.398;11.754;2022-08-18T14:15:04;95887.34;;;27.02;43.55
60479;BME280;46321;48.398;11.754;2022-08-18T14:17:31;95888.00;;;26.93;43.70
60479;BME280;46321;48.398;11.754;2022-08-18T14:19:57;95872.66;;;27.03;43.87
60479;BME280;46321;48.398;11.754;2022-08-18T14:22:41;95872.00;;;27.11;43.62
60479;BME280;46321;48.398;11.754;2022-08-18T14:25:25;95860.09;;;27.07;43.53
60479;BME280;46321;48.398;11.754;2022-08-18T14:28:09;95848.72;;;27.05;44.32
60479;BME280;46321;48.398;11.754;2022-08-18T14:30:35;95836.69;;;27.11;43.63
60479;BME280;46321;48.398;11.754;2022-08-18T14:33:04;95826.66;;;27.26;44.07
60479;BME280;46321;48.398;11.754;2022-08-18T14:35:29;95811.16;;;27.40;43.96
60479;BME280;46321;48.398;11.754;2022-08-18T14:37:55;95805.56;;;27.51;44.30
60479;BME280;46321;48.398;11.754;2022-08-18T14:40:20;95799.59;;;27.63;44.15
60479;BME280;46321;48.398;11.754;2022-08-18T14:42:46;95796.78;;;27.68;44.62
60479;BME280;46321;48.398;11.754;2022-08-18T14:45:11;95787.81;;;27.67;44.74
60479;BME280;46321;48.398;11.754;2022-08-18T14:47:38;95780.06;;;27.75;43.66
60479;BME280;46321;48.398;11.754;2022-08-18T14:50:07;95774.34;;;27.76;43.36
60479;BME280;46321;48.398;11.754;2022-08-18T14:52:37;95769.72;;;27.77;43.21
60479;BME280;46321;48.398;11.754;2022-08-18T14:55:03;95766.69;;;27.78;42.97
60479;BME280;46321;48.398;11.754;2022-08-18T14:57:29;95769.78;;;27.86;43.17